Terminal Aerodrome Forecast
Issued by NWS Jackson, MS

Home | Current Version | Previous Version | Text Only | Print | Product List | Glossary On
Versions: 1 2 3 4 5 6 7 8 9 10 11 12 13 14
000
FTUS44 KJAN 270520
TAFGWO
TAF
KGWO 270520Z 2706/2806 35011KT P6SM BKN250
     FM271200 35004KT P6SM BKN100
     FM271600 31008KT P6SM OVC050
     FM272000 33012G18KT P6SM OVC025
     FM272100 35016G23KT P6SM OVC025
     FM280100 35010KT P6SM SCT250=

USA.gov is the U.S. government's official web portal to all federal, state and local government web resources and services.